Time;durP1;ratioP1;P1;durP2;ratioP2;P2;SDS_P1;SDS_P2;PMS_P1;PMS_P2;Temp;Humidity;BMP_temperature;BMP_pressure;BME280_temperature;BME280_humidity;BME280_pressure;Samples;Min_cycle;Max_cycle;Signal;HPM_P1;HPM_P2
2023/04/26 00:02:01;;;;;;;1.40;0.90;;;11.70;70.90;;;;;;5046494;28;20684;-68
2023/04/26 00:04:28;;;;;;;5.73;1.70;;;11.70;71.00;;;;;;5051875;28;20261;-68
2023/04/26 00:06:55;;;;;;;3.90;1.50;;;11.60;71.10;;;;;;5046033;28;20186;-68
2023/04/26 00:09:22;;;;;;;4.23;1.33;;;11.70;71.30;;;;;;5052227;28;20285;-68
2023/04/26 00:11:51;;;;;;;1.47;1.20;;;11.70;71.30;;;;;;5051555;28;20951;-68
2023/04/26 00:14:18;;;;;;;4.30;1.20;;;11.60;71.20;;;;;;5048205;28;20197;-68
2023/04/26 00:16:45;;;;;;;4.37;1.30;;;11.60;71.30;;;;;;5051684;28;20287;-68
2023/04/26 00:19:12;;;;;;;1.97;1.30;;;11.60;71.50;;;;;;5047096;28;20218;-69
2023/04/26 00:21:39;;;;;;;2.90;1.50;;;11.50;71.40;;;;;;5053297;28;20193;-68
2023/04/26 00:24:07;;;;;;;1.70;1.17;;;11.50;71.40;;;;;;5051147;28;20722;-68
2023/04/26 00:26:34;;;;;;;3.67;1.30;;;11.50;71.50;;;;;;5049412;28;20681;-68
2023/04/26 00:29:04;;;;;;;3.33;1.30;;;11.50;71.60;;;;;;5064159;28;20633;-68
2023/04/26 00:31:31;;;;;;;4.13;1.67;;;11.50;71.70;;;;;;5056328;28;20308;-68
2023/04/26 00:33:59;;;;;;;3.10;1.23;;;11.50;71.80;;;;;;5046032;28;20206;-68
2023/04/26 00:36:26;;;;;;;3.77;1.13;;;11.40;71.80;;;;;;5048968;28;20222;-69
2023/04/26 00:38:53;;;;;;;2.80;1.20;;;11.40;71.80;;;;;;5051197;28;20312;-68
2023/04/26 00:41:20;;;;;;;3.43;1.27;;;11.40;71.90;;;;;;5046567;28;20203;-68
2023/04/26 00:43:47;;;;;;;4.37;1.63;;;11.30;71.90;;;;;;5054219;28;20209;-69
2023/04/26 00:46:16;;;;;;;4.90;1.40;;;11.30;72.00;;;;;;5051078;28;20198;-68
2023/04/26 00:48:44;;;;;;;1.13;1.00;;;11.30;72.10;;;;;;5046196;28;20202;-69
2023/04/26 00:51:12;;;;;;;3.83;1.33;;;11.30;72.30;;;;;;5049250;28;20206;-68
2023/04/26 00:53:40;;;;;;;3.60;1.37;;;11.30;72.30;;;;;;5048267;28;20210;-68
2023/04/26 00:56:09;;;;;;;7.53;1.53;;;11.30;72.30;;;;;;5047200;28;20227;-68
2023/04/26 00:58:37;;;;;;;3.33;1.33;;;11.30;72.30;;;;;;5048853;28;20202;-67
2023/04/26 01:01:04;;;;;;;4.83;1.70;;;11.30;72.40;;;;;;5040669;28;20215;-68
2023/04/26 01:03:33;;;;;;;2.20;1.20;;;11.30;72.50;;;;;;5045740;28;20314;-68
2023/04/26 01:06:01;;;;;;;2.30;1.30;;;11.30;72.60;;;;;;5050750;28;20182;-67
2023/04/26 01:08:28;;;;;;;2.17;1.13;;;11.20;72.60;;;;;;5053530;28;20205;-67
2023/04/26 01:10:58;;;;;;;3.80;1.33;;;11.20;72.80;;;;;;5052810;28;20549;-67
2023/04/26 01:13:26;;;;;;;3.77;1.40;;;11.20;73.00;;;;;;5049082;28;20568;-67
2023/04/26 01:15:54;;;;;;;3.90;1.57;;;11.20;72.90;;;;;;5045912;28;20758;-68
2023/04/26 01:18:21;;;;;;;4.10;1.07;;;11.30;73.10;;;;;;5045743;28;20580;-67
2023/04/26 01:20:52;;;;;;;1.00;0.90;;;11.20;73.00;;;;;;5051349;28;20198;-67
2023/04/26 01:23:20;;;;;;;2.40;0.90;;;11.20;73.00;;;;;;5047492;28;20189;-67
2023/04/26 01:25:48;;;;;;;1.77;1.10;;;11.30;73.20;;;;;;5063533;28;20282;-67
2023/04/26 01:28:15;;;;;;;2.43;1.10;;;11.30;74.00;;;;;;5052535;28;20255;-67
2023/04/26 01:30:43;;;;;;;2.77;1.00;;;11.30;73.30;;;;;;5044725;28;20205;-68
2023/04/26 01:33:10;;;;;;;3.67;1.40;;;11.30;73.30;;;;;;5048541;28;20202;-68
2023/04/26 01:35:37;;;;;;;2.23;1.30;;;11.30;73.30;;;;;;5048286;28;20228;-67
2023/04/26 01:38:04;;;;;;;2.20;1.10;;;11.30;73.30;;;;;;5044334;28;20207;-68
2023/04/26 01:40:32;;;;;;;4.17;1.00;;;11.30;73.30;;;;;;5053562;28;20197;-69
2023/04/26 01:42:59;;;;;;;3.03;1.40;;;11.30;73.40;;;;;;5048655;28;20725;-68
2023/04/26 01:45:29;;;;;;;4.80;1.57;;;11.30;73.40;;;;;;5045869;28;20196;-68
2023/04/26 01:48:15;;;;;;;1.60;1.03;;;11.30;73.40;;;;;;5049834;28;20275;-68
2023/04/26 01:50:42;;;;;;;1.87;0.90;;;11.30;73.50;;;;;;5049677;28;20669;-68
2023/04/26 01:53:09;;;;;;;4.50;1.50;;;11.30;73.50;;;;;;5044675;28;20210;-68
2023/04/26 01:55:37;;;;;;;3.43;1.03;;;11.30;73.50;;;;;;5049580;28;20232;-67
2023/04/26 01:58:04;;;;;;;1.50;1.03;;;11.30;73.60;;;;;;5047207;28;20588;-67
2023/04/26 02:00:34;;;;;;;1.67;0.90;;;11.20;73.70;;;;;;5052861;28;20200;-67
2023/04/26 02:03:01;;;;;;;1.73;1.10;;;11.30;73.80;;;;;;5048347;28;20237;-67
2023/04/26 02:05:30;;;;;;;3.27;1.20;;;11.30;73.90;;;;;;5044700;28;20228;-67
2023/04/26 02:07:57;;;;;;;5.23;1.40;;;11.30;73.90;;;;;;5048759;28;20686;-67
2023/04/26 02:10:24;;;;;;;2.67;1.00;;;11.30;74.00;;;;;;5049855;28;20200;-67
2023/04/26 02:12:52;;;;;;;2.80;1.10;;;11.30;74.00;;;;;;5050972;28;20205;-67
2023/04/26 02:15:20;;;;;;;3.37;1.07;;;11.30;74.00;;;;;;5048003;28;20224;-68
2023/04/26 02:17:48;;;;;;;2.00;1.10;;;11.30;74.00;;;;;;5057721;28;20258;-67
2023/04/26 02:20:15;;;;;;;4.03;1.20;;;11.30;74.10;;;;;;5044935;28;20198;-68
2023/04/26 02:22:42;;;;;;;2.60;1.00;;;11.40;74.50;;;;;;5048466;28;20215;-68
2023/04/26 02:25:10;;;;;;;3.77;1.27;;;11.30;74.30;;;;;;5051109;28;20715;-68
2023/04/26 02:27:37;;;;;;;3.80;1.13;;;11.30;74.30;;;;;;5044341;28;20319;-67
2023/04/26 02:30:07;;;;;;;5.10;1.47;;;11.30;74.40;;;;;;5047467;28;20673;-67
2023/04/26 02:32:35;;;;;;;3.63;1.20;;;11.30;74.50;;;;;;5054972;28;20264;-67
2023/04/26 02:35:02;;;;;;;3.00;1.00;;;11.30;74.50;;;;;;5044910;28;20682;-67
2023/04/26 02:37:29;;;;;;;1.93;1.17;;;11.30;74.60;;;;;;5053217;28;20206;-67
2023/04/26 02:39:56;;;;;;;5.53;1.40;;;11.40;74.70;;;;;;5046949;28;20292;-67
2023/04/26 02:42:24;;;;;;;2.63;1.33;;;11.40;75.50;;;;;;5046132;28;20259;-68
2023/04/26 02:44:51;;;;;;;4.10;1.43;;;11.30;74.60;;;;;;5049144;28;20196;-68
2023/04/26 02:47:20;;;;;;;1.63;0.97;;;11.30;74.70;;;;;;5044471;28;20283;-67
2023/04/26 02:49:48;;;;;;;2.80;1.20;;;11.30;74.80;;;;;;5047814;28;20201;-67
2023/04/26 02:52:15;;;;;;;1.97;0.90;;;11.30;74.80;;;;;;5048104;28;20236;-67
2023/04/26 02:54:42;;;;;;;2.97;1.40;;;11.20;74.80;;;;;;5047667;28;20660;-67
2023/04/26 02:57:10;;;;;;;4.97;0.97;;;11.20;74.90;;;;;;5045352;28;20239;-67
2023/04/26 02:59:37;;;;;;;2.33;1.20;;;11.20;75.00;;;;;;5047492;28;20228;-67
2023/04/26 03:02:04;;;;;;;1.70;1.10;;;11.20;75.10;;;;;;5043488;28;20208;-67
2023/04/26 03:04:34;;;;;;;2.97;1.30;;;11.20;75.20;;;;;;5047873;28;20272;-67
2023/04/26 03:07:02;;;;;;;4.40;1.37;;;11.20;75.40;;;;;;5047629;28;20221;-67
2023/04/26 03:09:30;;;;;;;1.57;1.00;;;11.20;75.40;;;;;;5045000;28;20205;-68
2023/04/26 03:11:57;;;;;;;1.20;0.90;;;11.20;75.50;;;;;;5048630;28;20204;-67
2023/04/26 03:14:24;;;;;;;1.50;1.03;;;11.20;75.50;;;;;;5050302;28;20201;-68
2023/04/26 03:16:52;;;;;;;2.47;1.00;;;11.10;75.40;;;;;;5047617;28;20240;-67
2023/04/26 03:19:19;;;;;;;4.80;1.13;;;11.20;75.60;;;;;;5054501;28;20196;-68
2023/04/26 03:21:48;;;;;;;1.73;1.13;;;11.20;75.60;;;;;;5058213;28;20534;-68
2023/04/26 03:24:15;;;;;;;1.47;0.90;;;11.10;75.60;;;;;;5050565;28;20319;-68
2023/04/26 03:26:43;;;;;;;2.97;1.00;;;11.10;75.70;;;;;;5050233;28;20293;-67
2023/04/26 03:29:11;;;;;;;4.70;1.17;;;11.10;75.80;;;;;;5049529;28;21058;-67
2023/04/26 03:31:38;;;;;;;5.20;1.37;;;11.10;75.90;;;;;;5050027;28;20650;-67
2023/04/26 03:34:06;;;;;;;3.80;1.13;;;11.00;75.80;;;;;;5051134;28;20216;-68
2023/04/26 03:36:34;;;;;;;4.50;1.40;;;11.10;75.90;;;;;;5049139;28;20223;-67
2023/04/26 03:39:05;;;;;;;1.50;0.93;;;11.10;75.90;;;;;;5049578;28;20193;-68
2023/04/26 03:41:35;;;;;;;1.63;1.00;;;11.10;76.00;;;;;;5050384;28;20205;-69
2023/04/26 03:44:05;;;;;;;2.87;1.10;;;11.10;75.90;;;;;;5048220;28;20205;-68
2023/04/26 03:46:32;;;;;;;1.20;1.10;;;11.10;76.00;;;;;;5058899;28;20223;-68
2023/04/26 03:49:00;;;;;;;3.17;1.40;;;11.10;76.10;;;;;;5052038;28;20768;-68
2023/04/26 03:51:27;;;;;;;1.20;0.90;;;11.10;76.50;;;;;;5052727;28;20273;-68
2023/04/26 03:53:55;;;;;;;2.10;1.23;;;11.10;76.90;;;;;;5053452;28;20231;-68
2023/04/26 03:56:24;;;;;;;3.40;1.03;;;11.10;76.30;;;;;;5055179;28;20218;-67
2023/04/26 03:58:51;;;;;;;3.50;0.87;;;11.10;76.30;;;;;;5053253;28;20671;-67
2023/04/26 04:01:19;;;;;;;4.87;1.50;;;11.10;76.30;;;;;;5049933;28;20288;-67
2023/04/26 04:03:46;;;;;;;5.43;1.33;;;11.10;76.50;;;;;;5054768;28;20336;-67
2023/04/26 04:06:15;;;;;;;2.23;1.00;;;11.00;76.50;;;;;;5052781;28;20240;-67
2023/04/26 04:08:43;;;;;;;3.30;1.20;;;11.00;76.50;;;;;;5049923;28;20210;-67
2023/04/26 04:11:10;;;;;;;1.87;1.10;;;11.00;76.50;;;;;;5053690;28;20233;-67
2023/04/26 04:13:40;;;;;;;1.37;0.90;;;11.00;76.50;;;;;;5047585;28;20202;-67
2023/04/26 04:16:09;;;;;;;2.67;1.10;;;11.00;76.50;;;;;;5051387;28;20206;-68
2023/04/26 04:18:36;;;;;;;1.63;1.20;;;11.00;76.40;;;;;;5049208;28;20668;-67
2023/04/26 04:21:04;;;;;;;2.60;1.20;;;11.10;76.50;;;;;;5046466;28;20198;-67
2023/04/26 04:23:31;;;;;;;1.50;1.10;;;11.00;76.50;;;;;;5045842;28;20280;-67
2023/04/26 04:26:00;;;;;;;3.40;1.13;;;11.00;76.60;;;;;;5046620;28;20813;-67
2023/04/26 04:28:28;;;;;;;2.60;1.20;;;11.00;76.60;;;;;;5065878;28;20204;-67
2023/04/26 04:30:59;;;;;;;2.87;1.40;;;11.00;76.50;;;;;;5049855;28;20202;-69
2023/04/26 04:33:27;;;;;;;5.13;1.10;;;11.00;76.50;;;;;;5039663;28;20567;-68
2023/04/26 04:35:56;;;;;;;4.20;1.10;;;11.00;76.40;;;;;;5051687;28;20218;-67
2023/04/26 04:38:23;;;;;;;3.93;1.30;;;11.00;76.30;;;;;;5052663;28;20703;-67
2023/04/26 04:40:52;;;;;;;3.13;0.97;;;11.00;76.50;;;;;;5048317;28;20198;-67
2023/04/26 04:43:20;;;;;;;2.70;0.93;;;11.00;76.50;;;;;;5065313;28;20212;-68
2023/04/26 04:45:48;;;;;;;2.90;1.40;;;10.90;76.30;;;;;;5049680;28;20303;-68
2023/04/26 04:48:17;;;;;;;0.77;0.77;;;10.80;76.30;;;;;;5046683;28;20317;-68
2023/04/26 04:50:45;;;;;;;1.33;1.00;;;10.80;76.60;;;;;;5049509;28;20544;-67
2023/04/26 04:53:13;;;;;;;1.87;1.00;;;10.80;76.70;;;;;;5049024;28;20259;-67
2023/04/26 04:55:41;;;;;;;2.33;1.03;;;10.80;76.70;;;;;;5046533;28;20299;-68
2023/04/26 04:58:09;;;;;;;2.30;1.03;;;10.80;76.70;;;;;;5049244;28;20277;-67
2023/04/26 05:00:37;;;;;;;4.57;1.00;;;10.80;76.70;;;;;;5048448;28;20247;-67
2023/04/26 05:03:21;;;;;;;1.93;1.10;;;10.90;76.70;;;;;;5049959;28;20320;-67
2023/04/26 05:05:48;;;;;;;2.83;0.90;;;10.90;76.70;;;;;;5049668;28;20557;-67
2023/04/26 05:08:15;;;;;;;2.13;1.03;;;10.90;76.60;;;;;;5046723;28;20201;-67
2023/04/26 05:10:42;;;;;;;2.13;1.00;;;10.90;76.60;;;;;;5057761;28;20660;-68
2023/04/26 05:13:10;;;;;;;2.43;0.90;;;10.90;76.60;;;;;;5056709;28;20232;-67
2023/04/26 05:15:38;;;;;;;4.70;1.53;;;10.90;76.70;;;;;;5047452;28;20651;-67
2023/04/26 05:18:06;;;;;;;4.77;1.33;;;10.90;76.60;;;;;;5048800;28;20217;-68
2023/04/26 05:20:34;;;;;;;2.87;0.90;;;10.90;76.60;;;;;;5054977;28;20208;-67
2023/04/26 05:23:01;;;;;;;3.27;1.13;;;10.90;76.70;;;;;;5044419;28;20292;-67
2023/04/26 05:25:28;;;;;;;2.37;1.10;;;10.90;76.90;;;;;;5047449;28;20199;-68
2023/04/26 05:28:03;;;;;;;1.37;0.90;;;10.90;76.90;;;;;;5048455;28;20231;-68
2023/04/26 05:30:53;;;;;;;2.80;1.00;;;10.90;76.90;;;;;;5012017;28;20243;-68
2023/04/26 05:33:27;;;;;;;2.53;1.03;;;11.00;76.90;;;;;;5053272;28;20232;-67
2023/04/26 05:35:58;;;;;;;2.33;1.10;;;11.00;76.80;;;;;;5049606;28;20325;-67
2023/04/26 05:38:26;;;;;;;5.93;1.23;;;11.00;76.80;;;;;;5045573;28;20316;-67
2023/04/26 05:40:53;;;;;;;1.50;0.77;;;11.00;76.90;;;;;;5039387;28;20205;-67
2023/04/26 05:43:20;;;;;;;1.03;0.93;;;11.00;76.80;;;;;;5047914;28;20228;-67
2023/04/26 05:45:51;;;;;;;3.23;1.00;;;11.00;77.00;;;;;;5049907;28;20202;-67
2023/04/26 05:48:20;;;;;;;3.37;1.10;;;11.00;77.00;;;;;;5048744;28;20251;-67
2023/04/26 05:50:47;;;;;;;1.97;0.90;;;11.10;77.10;;;;;;5046160;28;20200;-67
2023/04/26 05:53:16;;;;;;;5.37;1.30;;;11.10;77.10;;;;;;5048125;28;20216;-67
2023/04/26 05:55:44;;;;;;;2.83;1.10;;;11.10;77.10;;;;;;5047767;28;20239;-68
2023/04/26 05:58:11;;;;;;;3.63;1.00;;;11.20;77.10;;;;;;5043912;28;20219;-68
2023/04/26 06:00:40;;;;;;;2.20;1.03;;;11.20;77.00;;;;;;5047999;28;20215;-68
2023/04/26 06:03:08;;;;;;;1.30;0.90;;;11.10;77.00;;;;;;5047989;28;20229;-68
2023/04/26 06:05:37;;;;;;;2.33;1.40;;;11.20;77.00;;;;;;5045156;28;20583;-68
2023/04/26 06:08:05;;;;;;;3.43;1.13;;;11.30;76.90;;;;;;5054165;28;20559;-69
2023/04/26 06:10:36;;;;;;;3.50;1.33;;;11.30;76.70;;;;;;5048843;28;20250;-68
2023/04/26 06:13:03;;;;;;;3.10;1.30;;;11.40;76.70;;;;;;5053392;28;20198;-69
2023/04/26 06:15:33;;;;;;;5.10;1.37;;;11.40;76.80;;;;;;5048256;28;20702;-68
2023/04/26 06:18:00;;;;;;;3.30;1.20;;;11.40;77.30;;;;;;5046265;28;20211;-68
2023/04/26 06:20:27;;;;;;;6.10;1.37;;;11.40;76.60;;;;;;5045444;28;20209;-68
2023/04/26 06:22:55;;;;;;;6.53;1.87;;;11.40;76.50;;;;;;5047796;28;20194;-68
2023/04/26 06:25:23;;;;;;;4.87;1.37;;;11.30;76.30;;;;;;5032698;28;20334;-68
2023/04/26 06:27:51;;;;;;;4.67;1.53;;;11.30;76.30;;;;;;5031037;28;20246;-68
2023/04/26 06:30:19;;;;;;;3.70;1.20;;;11.30;76.30;;;;;;5042296;28;20214;-68
2023/04/26 06:32:47;;;;;;;2.83;1.20;;;11.30;76.30;;;;;;5042291;28;20680;-68
2023/04/26 06:35:15;;;;;;;3.50;1.40;;;11.20;76.20;;;;;;5043381;28;20208;-68
2023/04/26 06:37:45;;;;;;;2.50;1.13;;;11.20;76.00;;;;;;5032232;28;20289;-68
2023/04/26 06:40:14;;;;;;;2.63;1.27;;;11.20;75.90;;;;;;5044005;28;20206;-68
2023/04/26 06:42:42;;;;;;;1.10;1.00;;;11.20;75.80;;;;;;5042409;28;20300;-67
2023/04/26 06:45:31;;;;;;;4.03;1.40;;;11.30;75.70;;;;;;5045330;28;20248;-68
2023/04/26 06:48:04;;;;;;;3.27;1.50;;;11.30;75.70;;;;;;5045749;28;20204;-67
2023/04/26 06:50:31;;;;;;;4.30;1.40;;;11.50;76.00;;;;;;5040718;28;20689;-68
2023/04/26 06:52:59;;;;;;;5.63;1.30;;;11.30;75.60;;;;;;5052968;28;20335;-67
2023/04/26 06:55:26;;;;;;;2.10;1.17;;;11.40;75.40;;;;;;5044080;28;20704;-68
2023/04/26 06:57:54;;;;;;;3.33;1.37;;;11.40;75.20;;;;;;5051599;28;20213;-67
2023/04/26 07:00:22;;;;;;;3.70;1.47;;;11.40;74.80;;;;;;5053367;28;20239;-67
2023/04/26 07:02:51;;;;;;;4.37;1.70;;;11.40;74.80;;;;;;5055300;28;20323;-70
2023/04/26 07:05:18;;;;;;;3.23;1.47;;;11.40;74.50;;;;;;5047081;28;20249;-69
2023/04/26 07:07:45;;;;;;;3.53;1.30;;;11.40;74.10;;;;;;5046385;28;20193;-69
2023/04/26 07:10:13;;;;;;;6.33;1.60;;;11.50;74.30;;;;;;5051153;28;20206;-69
2023/04/26 07:12:41;;;;;;;4.93;1.50;;;11.60;74.20;;;;;;5048413;28;20544;-70
2023/04/26 07:15:09;;;;;;;2.10;1.20;;;11.60;74.20;;;;;;5047708;28;20202;-70
2023/04/26 07:17:36;;;;;;;1.40;1.23;;;11.60;73.90;;;;;;5047663;28;20579;-69
2023/04/26 07:20:06;;;;;;;4.77;1.50;;;11.60;74.10;;;;;;5046707;28;20207;-69
2023/04/26 07:22:33;;;;;;;5.27;1.60;;;11.60;74.30;;;;;;5045366;28;20315;-69
2023/04/26 07:25:00;;;;;;;2.87;1.40;;;11.60;74.00;;;;;;5054170;28;20193;-69
2023/04/26 07:27:28;;;;;;;4.13;1.20;;;11.50;73.60;;;;;;5048362;28;20211;-69
2023/04/26 07:29:55;;;;;;;3.00;1.60;;;11.50;73.70;;;;;;5047863;28;20627;-69
2023/04/26 07:32:23;;;;;;;5.93;1.30;;;11.40;73.60;;;;;;5057610;28;20224;-70
2023/04/26 07:34:50;;;;;;;2.03;1.10;;;11.30;73.50;;;;;;5056943;28;20229;-69
2023/04/26 07:37:19;;;;;;;7.47;1.30;;;11.20;73.50;;;;;;5054045;28;20216;-70
2023/04/26 07:39:47;;;;;;;2.47;1.23;;;11.20;73.90;;;;;;5058494;28;20293;-71
2023/04/26 07:42:15;;;;;;;3.60;1.43;;;11.20;73.90;;;;;;5052815;28;20197;-70
2023/04/26 07:44:42;;;;;;;4.03;1.60;;;11.20;73.80;;;;;;5056600;28;20247;-69
2023/04/26 07:47:13;;;;;;;7.53;1.27;;;11.20;73.90;;;;;;5050571;28;20295;-69
2023/04/26 07:49:40;;;;;;;4.07;1.53;;;11.20;73.70;;;;;;5047486;28;20198;-70
2023/04/26 07:52:09;;;;;;;14.03;1.93;;;11.20;73.60;;;;;;5047798;28;20197;-70
2023/04/26 07:54:39;;;;;;;6.47;1.70;;;11.10;73.60;;;;;;5057896;28;20244;-70
2023/04/26 07:57:06;;;;;;;3.53;1.13;;;11.00;73.50;;;;;;5045101;28;20216;-70
2023/04/26 07:59:33;;;;;;;2.00;1.10;;;11.00;73.80;;;;;;5051967;28;20190;-70
2023/04/26 08:02:00;;;;;;;1.97;1.20;;;11.00;74.10;;;;;;5045281;28;20224;-70
2023/04/26 08:04:32;;;;;;;3.53;0.93;;;11.10;75.00;;;;;;5047871;28;20304;-70
2023/04/26 08:07:00;;;;;;;3.40;1.30;;;11.10;74.30;;;;;;5053003;28;20199;-69
2023/04/26 08:09:28;;;;;;;5.90;1.57;;;11.20;74.50;;;;;;5048859;28;20203;-71
2023/04/26 08:11:58;;;;;;;3.77;1.23;;;11.20;74.00;;;;;;5044205;28;20525;-69
2023/04/26 08:14:26;;;;;;;4.27;1.40;;;11.10;73.90;;;;;;5060982;28;20217;-69
2023/04/26 08:16:53;;;;;;;4.23;1.27;;;11.10;74.00;;;;;;5048307;28;20664;-69
2023/04/26 08:19:20;;;;;;;4.17;1.30;;;11.10;73.80;;;;;;5046202;28;20754;-69
2023/04/26 08:21:48;;;;;;;3.30;1.17;;;11.10;73.90;;;;;;5045492;28;20565;-70
2023/04/26 08:24:15;;;;;;;3.33;1.30;;;11.10;74.20;;;;;;5053478;28;20200;-69
2023/04/26 08:26:42;;;;;;;1.90;1.10;;;11.00;74.60;;;;;;5056472;28;20434;-71
2023/04/26 08:29:11;;;;;;;1.63;0.90;;;11.10;75.00;;;;;;5054798;28;20191;-69
2023/04/26 08:31:38;;;;;;;3.20;1.47;;;11.10;75.00;;;;;;5046485;28;20198;-68
2023/04/26 08:34:06;;;;;;;1.97;1.30;;;11.10;75.10;;;;;;5050691;28;20582;-69
2023/04/26 08:36:36;;;;;;;6.33;1.20;;;11.10;75.50;;;;;;5050098;28;20208;-69
2023/04/26 08:39:03;;;;;;;1.87;1.00;;;11.10;75.60;;;;;;5044685;28;20661;-68
2023/04/26 08:41:41;;;;;;;3.17;1.20;;;11.10;76.10;;;;;;5055424;28;20237;-65
2023/04/26 08:44:10;;;;;;;2.13;0.83;;;11.00;76.60;;;;;;5062488;28;20197;-69
2023/04/26 08:46:47;;;;;;;1.83;1.20;;;11.00;77.10;;;;;;5046858;28;20204;-68
2023/04/26 08:49:28;;;;;;;1.53;1.00;;;11.00;77.80;;;;;;5049786;28;20267;-68
2023/04/26 08:51:57;;;;;;;3.73;1.10;;;11.10;78.40;;;;;;5047575;28;20268;-68
2023/04/26 08:54:25;;;;;;;0.83;0.83;;;11.00;79.00;;;;;;5053791;28;20190;-68
2023/04/26 08:56:55;;;;;;;2.57;0.93;;;11.00;79.30;;;;;;5050990;28;20286;-68
2023/04/26 08:59:24;;;;;;;1.97;0.83;;;11.00;79.80;;;;;;5043164;28;20283;-68
2023/04/26 09:01:52;;;;;;;1.37;0.77;;;11.00;80.00;;;;;;5044662;28;20302;-68
2023/04/26 09:04:19;;;;;;;1.67;0.93;;;11.10;80.40;;;;;;5053258;28;20219;-68
2023/04/26 09:06:49;;;;;;;1.40;0.97;;;11.10;80.70;;;;;;5041630;28;20229;-68
2023/04/26 09:09:19;;;;;;;2.57;1.23;;;11.20;81.00;;;;;;5046437;28;20289;-68
2023/04/26 09:11:54;;;;;;;3.23;1.30;;;11.20;81.00;;;;;;5051571;28;20339;-68
2023/04/26 09:14:23;;;;;;;3.00;1.23;;;11.20;81.00;;;;;;5042095;28;20201;-68
2023/04/26 09:16:52;;;;;;;4.50;1.20;;;11.10;80.90;;;;;;5053696;28;20207;-68
2023/04/26 09:19:39;;;;;;;3.63;1.30;;;11.10;80.90;;;;;;5053410;28;20246;-68
2023/04/26 09:22:07;;;;;;;4.40;1.63;;;11.10;80.30;;;;;;5040068;28;20669;-68
2023/04/26 09:24:49;;;;;;;2.97;1.23;;;11.00;80.10;;;;;;5042644;28;20198;-68
2023/04/26 09:27:16;;;;;;;2.20;1.53;;;11.00;80.10;;;;;;5037043;28;20339;-69
2023/04/26 09:30:04;;;;;;;3.40;1.13;;;11.00;80.10;;;;;;5046898;28;20280;-68
2023/04/26 09:32:47;;;;;;;5.73;2.00;;;11.10;80.20;;;;;;5046947;28;20278;-70
2023/04/26 09:35:26;;;;;;;5.97;1.57;;;11.10;80.20;;;;;;5043665;28;20372;-68
2023/04/26 09:37:55;;;;;;;5.03;1.50;;;11.10;80.40;;;;;;5042382;28;20218;-68
2023/04/26 09:40:23;;;;;;;3.73;1.30;;;11.10;80.20;;;;;;5045998;28;20715;-67
2023/04/26 09:42:58;;;;;;;2.07;1.00;;;11.10;80.30;;;;;;5049250;28;20209;-67
2023/04/26 09:45:27;;;;;;;4.70;1.27;;;11.10;80.30;;;;;;5048197;28;20254;-67
2023/04/26 09:47:55;;;;;;;2.40;1.13;;;11.10;80.40;;;;;;5046446;28;20225;-68
2023/04/26 09:50:29;;;;;;;1.23;0.77;;;11.10;80.50;;;;;;5051527;28;20200;-68
2023/04/26 09:52:57;;;;;;;2.00;1.10;;;11.10;80.40;;;;;;5044885;28;20207;-68
2023/04/26 09:55:28;;;;;;;1.83;0.90;;;11.00;80.40;;;;;;5045480;28;20206;-68
2023/04/26 09:57:57;;;;;;;2.17;1.10;;;11.00;80.50;;;;;;5047712;28;20242;-68
2023/04/26 10:00:28;;;;;;;1.80;1.07;;;11.00;80.70;;;;;;5049127;28;20198;-68
2023/04/26 10:02:57;;;;;;;1.97;0.90;;;11.00;80.80;;;;;;5041856;28;20701;-67
2023/04/26 10:05:25;;;;;;;3.03;1.03;;;11.00;81.20;;;;;;5048682;28;20209;-67
2023/04/26 10:07:52;;;;;;;1.40;0.90;;;11.00;81.30;;;;;;5044587;28;20223;-67
2023/04/26 10:10:20;;;;;;;1.47;1.10;;;11.00;81.50;;;;;;5048183;28;20212;-67
2023/04/26 10:12:47;;;;;;;1.10;1.00;;;11.00;81.70;;;;;;5046587;28;20207;-68
2023/04/26 10:15:15;;;;;;;2.27;0.97;;;11.00;81.70;;;;;;5048274;28;20636;-68
2023/04/26 10:17:43;;;;;;;4.10;1.10;;;11.00;82.00;;;;;;5045890;28;20274;-68
2023/04/26 10:20:15;;;;;;;3.53;1.17;;;10.90;82.10;;;;;;5053616;28;20214;-69
2023/04/26 10:22:46;;;;;;;3.50;0.90;;;10.90;82.50;;;;;;5039021;28;20223;-69
2023/04/26 10:25:13;;;;;;;1.60;0.90;;;10.90;82.70;;;;;;5043871;28;20200;-68
2023/04/26 10:27:51;;;;;;;2.67;1.20;;;10.80;82.90;;;;;;5048157;28;20276;-71
2023/04/26 10:30:23;;;;;;;2.03;1.13;;;10.70;83.10;;;;;;5041572;28;20191;-70
2023/04/26 10:33:13;;;;;;;4.13;1.37;;;10.70;83.40;;;;;;5045422;28;20663;-70
2023/04/26 10:36:08;;;;;;;2.60;1.30;;;10.70;84.10;;;;;;5042058;28;20229;-70
2023/04/26 10:38:37;;;;;;;3.57;1.57;;;10.80;84.50;;;;;;5046276;28;20425;-71
2023/04/26 10:41:43;;;;;;;3.60;1.20;;;10.90;84.40;;;;;;5053877;28;20203;-70
2023/04/26 10:44:40;;;;;;;1.50;1.10;;;10.90;84.30;;;;;;5044247;28;20294;-70
2023/04/26 10:47:11;;;;;;;0.97;0.83;;;10.80;84.30;;;;;;5040577;28;20703;-70
2023/04/26 10:49:47;;;;;;;2.60;1.10;;;10.90;84.60;;;;;;5046162;28;20200;-70
2023/04/26 10:52:18;;;;;;;1.37;1.20;;;11.10;85.50;;;;;;5058673;28;20203;-70
2023/04/26 10:54:48;;;;;;;2.33;1.23;;;11.10;84.90;;;;;;5055649;28;20262;-70
2023/04/26 10:57:15;;;;;;;2.50;1.40;;;11.20;85.10;;;;;;5040949;28;20455;-69
2023/04/26 11:00:30;;;;;;;1.30;1.20;;;11.30;86.00;;;;;;5051087;28;20222;-70
2023/04/26 11:03:02;;;;;;;2.30;1.33;;;11.30;86.30;;;;;;4987436;28;20232;-70
2023/04/26 11:05:45;;;;;;;2.47;1.17;;;11.40;87.30;;;;;;4982757;28;20224;-70
2023/04/26 11:08:19;;;;;;;3.17;1.20;;;11.50;88.40;;;;;;5018670;28;20532;-70
2023/04/26 11:10:51;;;;;;;4.13;1.53;;;11.50;87.70;;;;;;5047005;28;20206;-70
2023/04/26 11:13:19;;;;;;;2.67;1.37;;;11.60;87.70;;;;;;5043201;28;20522;-70
2023/04/26 11:15:47;;;;;;;1.70;1.00;;;11.70;87.80;;;;;;5046136;28;20290;-70
2023/04/26 11:18:20;;;;;;;5.07;1.30;;;11.70;87.60;;;;;;5033685;28;20216;-70
2023/04/26 11:20:47;;;;;;;5.80;1.53;;;11.80;87.90;;;;;;5046876;28;20200;-69
2023/04/26 11:23:14;;;;;;;3.50;1.57;;;11.90;88.20;;;;;;5045130;28;20190;-71
2023/04/26 11:25:44;;;;;;;5.00;1.40;;;12.00;87.60;;;;;;5048908;28;20208;-70
2023/04/26 11:28:12;;;;;;;3.90;1.50;;;12.10;87.60;;;;;;5048969;28;20202;-71
2023/04/26 11:30:40;;;;;;;6.93;1.67;;;12.10;87.70;;;;;;5048727;28;20199;-71
2023/04/26 11:33:16;;;;;;;2.77;1.40;;;12.10;86.30;;;;;;5043121;28;20292;-70
2023/04/26 11:35:43;;;;;;;4.60;1.60;;;12.10;85.70;;;;;;5051792;28;20279;-71
2023/04/26 11:38:10;;;;;;;4.03;1.83;;;12.20;85.50;;;;;;5055258;28;20192;-71
2023/04/26 11:40:38;;;;;;;3.80;1.13;;;12.20;84.70;;;;;;5045487;28;20273;-71
2023/04/26 11:43:07;;;;;;;3.60;1.50;;;12.30;84.50;;;;;;5053788;28;20661;-71
2023/04/26 11:45:36;;;;;;;2.23;1.20;;;12.40;83.30;;;;;;5049282;28;20202;-70
2023/04/26 11:48:05;;;;;;;4.10;1.60;;;12.60;83.00;;;;;;5048021;28;20204;-71
2023/04/26 11:50:34;;;;;;;4.17;1.30;;;12.70;82.50;;;;;;5049915;28;20198;-71
2023/04/26 11:53:03;;;;;;;4.60;1.30;;;12.90;81.50;;;;;;5050379;28;20626;-70
2023/04/26 11:55:31;;;;;;;2.53;1.40;;;13.00;81.00;;;;;;5048948;28;20659;-71
2023/04/26 11:57:59;;;;;;;2.90;1.40;;;13.10;80.60;;;;;;5048538;28;20673;-70
2023/04/26 12:00:28;;;;;;;2.90;1.40;;;13.20;80.30;;;;;;5047005;28;20218;-69
2023/04/26 12:02:56;;;;;;;8.40;1.53;;;13.40;80.20;;;;;;5049167;28;20566;-70
2023/04/26 12:05:24;;;;;;;1.37;1.10;;;13.60;79.40;;;;;;5045948;28;20214;-69
2023/04/26 12:07:54;;;;;;;5.73;1.40;;;13.90;79.00;;;;;;5043760;28;20198;-70
2023/04/26 12:10:25;;;;;;;2.37;1.13;;;14.10;78.00;;;;;;5043527;28;20211;-70
2023/04/26 12:12:54;;;;;;;2.47;0.87;;;14.20;76.50;;;;;;5048098;28;20195;-70
2023/04/26 12:15:24;;;;;;;4.77;1.50;;;14.30;76.00;;;;;;5046516;28;20528;-70
2023/04/26 12:18:01;;;;;;;3.93;1.30;;;14.20;74.10;;;;;;5048216;28;20545;-71
2023/04/26 12:20:32;;;;;;;2.60;1.00;;;14.20;74.10;;;;;;5052887;28;20592;-71
2023/04/26 12:23:07;;;;;;;2.40;1.00;;;14.20;74.10;;;;;;5052863;28;20261;-71
2023/04/26 12:25:37;;;;;;;1.33;1.03;;;14.40;74.10;;;;;;5054835;28;20218;-71
2023/04/26 12:28:07;;;;;;;2.43;1.10;;;14.50;73.90;;;;;;5041331;28;20200;-71
2023/04/26 12:30:34;;;;;;;1.67;1.10;;;14.70;72.70;;;;;;5049813;28;20219;-72
2023/04/26 12:33:06;;;;;;;1.47;1.10;;;14.70;71.50;;;;;;5048477;28;20222;-71
2023/04/26 12:35:35;;;;;;;2.30;1.10;;;14.70;70.10;;;;;;5045882;28;20275;-70
2023/04/26 12:38:02;;;;;;;4.17;1.20;;;14.60;69.70;;;;;;5046947;28;20195;-70
2023/04/26 12:40:30;;;;;;;2.83;1.27;;;14.50;67.90;;;;;;5051607;28;20304;-71
2023/04/26 12:42:57;;;;;;;1.10;0.80;;;14.40;66.50;;;;;;5043797;28;20297;-71
2023/04/26 12:45:25;;;;;;;1.83;0.93;;;14.30;67.00;;;;;;5050597;28;20621;-71
2023/04/26 12:47:53;;;;;;;4.33;1.37;;;14.20;67.00;;;;;;5048856;28;20207;-70
2023/04/26 12:50:22;;;;;;;4.13;1.03;;;14.10;67.50;;;;;;5050794;28;20203;-71
2023/04/26 12:52:49;;;;;;;3.73;1.53;;;14.10;66.70;;;;;;5046907;28;20199;-68
2023/04/26 12:55:16;;;;;;;4.07;0.83;;;14.10;64.20;;;;;;5047841;28;20211;-68
2023/04/26 12:57:45;;;;;;;1.67;0.97;;;14.00;64.50;;;;;;5045417;28;20191;-69
2023/04/26 13:00:14;;;;;;;1.43;0.80;;;14.10;64.40;;;;;;5054981;28;20218;-71